Tiempo atmosférico en la estación meteorológica de Castell, Platja d'Aro, Girona (14 m.)



Fecha
DESCASC
Temp. máxima en grados centígrados (hora)
DESCASC
Temp. mínima en grados centígrados (hora)
DESCASC
Temp. media en grados centígrados
DESCASC
Racha de viento máxima en m/sg (hora)
DESCASC
Velocidad máxima media en intervalos de 10 minutos(hora)
DESCASC
Precipitaciones diarias en mm
DESCASC
Precipitaciones de 00:00 a 06:00 en mm
DESCASC
Precipitaciones de 06:00 a 12:00 en mm
DESCASC
Precipitaciones de 12:00 a 18:00 en mm
DESCASC
Precipitaciones de 18:00 a 24:00 en mm
DESCASC
27-01-2020 15 (13:00) 3.7 (07:00) 9.4 10 (11:40) 5.28 (11:40) 0 0 0 0 0
26-01-2020 14.5 (13:50) 6.5 (23:30) 10.5 6.39 (10:20) 3.61 (10:40) 0 0 0 0 0
25-01-2020 14.9 (13:30) 5.8 (00:00) 10.3 4.44 (06:40) 2.5 (00:20) 0 0 0 0 0
24-01-2020 15.4 (14:00) 3.8 (00:00) 9.6 5 (10:40) 2.78 (10:40) 0 0 0 0 0
23-01-2020 16 (12:50) 6.2 (00:00) 11.1 11.67 (09:30) 5.83 (04:50) 15.4 12.4 3 0 0
22-01-2020 14.5 (11:30) 12.2 (00:00) 13.3 16.94 (00:30) 10.56 (01:40) 19.8 14.2 5.4 0.2 0
21-01-2020 12.8 (21:50) 9.4 (00:00) 11.1 20 (07:40) 10.56 (13:20) 24.2 15 3 0.2 6
20-01-2020 9.5 (23:50) 4.2 (00:00) 6.8 20.83 (07:50) 8.61 (00:20) 49.6 0 7.6 17.6 24.4
19-01-2020 11.6 (13:40) 5.2 (00:00) 8.4 20.56 (14:50) 10 (22:40) 0 0 0 0 0
18-01-2020 13.9 (14:00) 3.9 (00:00) 8.9 5.83 (07:50) 3.61 (10:00) 0 0 0 0 0
17-01-2020 18.7 (13:40) 5.3 (00:00) 12 12.22 (16:50) 5.56 (16:30) 0 0 0 0 0
16-01-2020 14.4 (15:30) 3.3 (00:00) 8.8 8.06 (21:50) 3.61 (21:00) 0 0 0 0 0
15-01-2020 14.6 (11:50) 5.3 (00:00) 10 10 (13:40) 5 (14:00) 0 0 0 0 0
14-01-2020 14.8 (13:30) 0.6 (00:00) 7.7 11.11 (16:00) 6.67 (16:00) 0 0 0 0 0
13-01-2020 13.1 (13:30) -0.1 (00:00) 6.5 5.28 (06:20) 3.06 (06:10) 0 0 0 0 0
12-01-2020 13.2 (14:00) 0.1 (00:00) 6.6 5 (12:10) 2.78 (23:59) 0 0 0 0 0
11-01-2020 13.2 (14:20) 2 (00:00) 7.6 8.33 (01:30) 4.72 (00:50) 0 0 0 0 0
10-01-2020 13.2 (15:00) 9.1 (00:00) 11.2 12.22 (18:40) 5.56 (22:40) 6.2 1.8 4.4 0 0
09-01-2020 14.7 (12:40) 1.8 (00:00) 8.2 10 (14:30) 4.17 (11:30) 0 0 0 0 0
08-01-2020 15.5 (12:40) 3.5 (00:00) 9.5 8.33 (11:50) 4.44 (12:10) 0 0 0 0 0
07-01-2020 14.7 (13:30) 2.6 (00:00) 8.6 5.83 (10:00) 3.06 (08:30) 0 0 0 0 0
06-01-2020 14.6 (13:30) 4.3 (00:00) 9.5 7.22 (06:50) 3.61 (06:50) 0 0 0 0 0
05-01-2020 15.2 (12:50) 1.8 (00:00) 8.5 6.39 (15:50) 3.33 (06:50) 0 0 0 0 0
04-01-2020 15.3 (14:20) 2.1 (00:00) 8.7 6.11 (11:10) 3.33 (11:10) 0 0 0 0 0
03-01-2020 13.4 (14:40) 2.4 (00:00) 7.9 6.11 (11:10) 3.33 (11:10) 0 0 0 0 0
02-01-2020 13.6 (15:20) 3.5 (00:00) 8.6 9.17 (13:30) 4.72 (13:30) 0 0 0 0 0
01-01-2020 13.9 (15:40) 3.7 (00:00) 8.8 5.83 (07:20) 2.78 (14:20) 0 0 0 0 0
31-12-2019 15.6 (13:30) 4.7 (00:00) 10.2 7.78 (14:40) 3.89 (14:50) 0 0 0 0 0
30-12-2019 13.7 (13:10) 3.1 (00:00) 8.4 5 (13:50) 2.78 (13:50) 0 0 0 0 0

Gráficas

Temp. máximas Temp. mínimas Temp. medias Precipitaciones Rachas de viento máximas Velocidades máximas media en intervalos de 10 minutos

Datos horarios

Fecha y hora oficial Temperatura (ºC) Velocidad del viento (km/h) Dirección del viento Racha (km/h) Dirección de racha Precipitación (mm) Presión (hPa) Tendencia (hPa) Humedad (%)
2020-01-28 23:00:00 6.7 9 Oeste 14 Oeste 0 -- -- 96
2020-01-28 22:00:00 7 6 Oeste 15 Oeste 0 -- -- 95
2020-01-28 21:00:00 7.4 6 Oeste 13 Oeste 0 -- -- 94
2020-01-28 20:00:00 8.4 6 Oeste 11 Oeste 0 -- -- 94
2020-01-28 19:00:00 9.3 5 Oeste 9 Oeste 0 -- -- 91
2020-01-28 18:00:00 11.4 2 Oeste 6 Sudeste 0 -- -- 87
2020-01-28 17:00:00 12.8 3 Sudeste 5 Este 0 -- -- 82
2020-01-28 16:00:00 14.7 3 Este 9 Sudeste 0 -- -- 71
2020-01-28 15:00:00 14.5 5 Este 18 Este 0 -- -- 76
2020-01-28 14:00:00 14.3 9 Este 18 Este 0 -- -- 71
2020-01-28 13:00:00 14.2 8 Este 15 Este 0 -- -- 70
2020-01-28 12:00:00 13.2 6 Este 10 Este 0 -- -- 78
2020-01-28 11:00:00 10.9 4 Este 6 Nordeste 0 -- -- 81
2020-01-28 10:00:00 8.4 0 Calma 9 Oeste 0 -- -- 88
2020-01-28 09:00:00 6.6 7 Oeste 18 Oeste 0 -- -- 92
2020-01-28 08:00:00 5.4 8 Oeste 19 Oeste 0 -- -- 95
2020-01-28 07:00:00 4.5 10 Oeste 18 Oeste 0 -- -- 95
2020-01-28 06:00:00 5.2 5 Norte 9 Sur 0 -- -- 93
2020-01-28 05:00:00 5.8 5 Oeste 13 Sudoeste 0 -- -- 90
2020-01-28 04:00:00 5.1 3 Sudoeste 9 Sudoeste 0 -- -- 94
2020-01-28 03:00:00 4.7 3 Sudoeste 10 Sudoeste 0 -- -- 91
2020-01-28 02:00:00 5.1 5 Oeste 13 Oeste 0 -- -- 90
2020-01-28 01:00:00 5.7 7 Oeste 12 Oeste 0 -- -- 89
2020-01-28 00:00:00 6.8 5 Oeste 8 Oeste 0 -- -- 86
2020-01-27 23:00:00 8.4 3 Oeste 9 Sudoeste 0 -- -- 80
2020-01-27 22:00:00 9.2 5 Oeste 10 Sudoeste 0 -- -- 76
2020-01-27 21:00:00 9.5 5 Oeste 8 Oeste 0 -- -- 75
2020-01-27 20:00:00 10.2 4 Sur 10 Noroeste 0 -- -- 72
2020-01-27 19:00:00 12.4 6 Oeste 27 Sudoeste 0 -- -- 59
2020-01-27 18:00:00 12.8 9 Sudoeste 23 Sudoeste 0 -- -- 56
2020-01-27 17:00:00 13.2 9 Sudoeste 31 Sudoeste 0 -- -- 57
2020-01-27 16:00:00 13.5 10 Sudoeste 27 Oeste 0 -- -- 61
2020-01-27 15:00:00 13.9 14 Sudoeste 33 Sudoeste 0 -- -- 58
2020-01-27 14:00:00 14.4 15 Sudoeste 33 Oeste 0 -- -- 56
2020-01-27 13:00:00 15 17 Sudoeste 30 Oeste 0 -- -- 58
2020-01-27 12:00:00 13.8 14 Oeste 36 Sudoeste 0 -- -- 63
2020-01-27 11:00:00 11.8 8 Sudoeste 16 Sudoeste 0 -- -- 80
2020-01-27 10:00:00 7.3 5 Sudoeste 9 Noroeste 0 -- -- 100
2020-01-27 09:00:00 4.7 7 Oeste 14 Oeste 0 -- -- 99
2020-01-27 08:00:00 4.3 8 Oeste 14 Oeste 0 -- -- 99
2020-01-27 07:00:00 3.7 6 Oeste 12 Oeste 0 -- -- 98
2020-01-27 06:00:00 3.9 8 Oeste 13 Oeste 0 -- -- 98
2020-01-27 05:00:00 4.1 7 Oeste 16 Oeste 0 -- -- 98
2020-01-27 04:00:00 4.8 8 Oeste 13 Oeste 0 -- -- 98
2020-01-27 03:00:00 4.8 6 Oeste 13 Oeste 0 -- -- 98
2020-01-27 02:00:00 5.5 6 Oeste 10 Oeste 0 -- -- 97
2020-01-27 01:00:00 5.9 5 Oeste 13 Oeste 0 -- -- 97
2020-01-27 00:00:00 6.6 7 Oeste 14 Oeste 0 -- -- 97
2020-01-26 23:00:00 7 8 Oeste 12 Oeste 0 -- -- 96
2020-01-26 22:00:00 7.5 6 Oeste 11 Oeste 0 -- -- 95
2020-01-26 21:00:00 8.2 6 Oeste 11 Oeste 0 -- -- 93
2020-01-26 20:00:00 9.3 5 Oeste 8 Oeste 0 -- -- 91
2020-01-26 19:00:00 10.7 3 Noroeste 5 Noroeste 0 -- -- 86
2020-01-26 18:00:00 12.3 0 Calma 13 Nordeste 0 -- -- 81
2020-01-26 17:00:00 13.4 3 Oeste 9 Sur 0 -- -- 73
2020-01-26 16:00:00 13.3 5 Sur 10 Sudeste 0 -- -- 72
2020-01-26 15:00:00 13.9 4 Nordeste 17 Norte 0 -- -- 69
2020-01-26 14:00:00 14.3 9 Norte 18 Norte 0 -- -- 65
2020-01-26 13:00:00 13.2 5 Este 10 Este 0 -- -- 81
2020-01-26 12:00:00 12.2 0 Calma 16 Oeste 0 -- -- 90
2020-01-26 11:00:00 11.2 11 Oeste 23 Oeste 0 -- -- 94
2020-01-26 10:00:00 9.5 8 Oeste 15 Oeste 0 -- -- 100
2020-01-26 09:00:00 8 9 Oeste 16 Oeste 0 -- -- 100
2020-01-26 08:00:00 8.3 8 Oeste 16 Sudoeste 0 -- -- 100
2020-01-26 07:00:00 8.6 8 Oeste 14 Sudoeste 0 -- -- 99
2020-01-26 06:00:00 9.1 7 Oeste 12 Sudoeste 0 -- -- 100
2020-01-26 05:00:00 9.1 6 Oeste 12 Oeste 0 -- -- 100
2020-01-26 04:00:00 8.8 6 Oeste 12 Oeste 0 -- -- 99
2020-01-26 03:00:00 8.4 6 Oeste 12 Oeste 0 -- -- 98
2020-01-26 02:00:00 8.7 5 Oeste 10 Oeste 0 -- -- 98
2020-01-26 01:00:00 9.6 7 Oeste 11 Oeste 0 -- -- 98
2020-01-26 00:00:00 9.9 5 Oeste 10 Oeste 0 -- -- 97
2020-01-25 23:00:00 10.5 4 Oeste 6 Oeste 0 -- -- 96
2020-01-25 22:00:00 11.2 0 Calma 5 Oeste 0 -- -- 95
2020-01-25 21:00:00 12 0 Calma 7 Sur 0 -- -- 94
2020-01-25 20:00:00 12.2 0 Calma 4 Este 0 -- -- 93
2020-01-25 19:00:00 12.4 0 Calma 3 Sur 0 -- -- 92
2020-01-25 18:00:00 12.8 3 Este 4 Este 0 -- -- 91
2020-01-25 17:00:00 13.2 2 Este 6 Este 0 -- -- 88
2020-01-25 16:00:00 13.6 3 Sudeste 13 Sudeste 0 -- -- 86
2020-01-25 15:00:00 14 4 Sudeste 12 Sudeste 0 -- -- 83
2020-01-25 14:00:00 14 7 Sur 12 Sur 0 -- -- 81
2020-01-25 13:00:00 14.1 4 Este 11 Sur 0 -- -- 81
2020-01-25 12:00:00 11.5 4 Noroeste 12 Oeste 0 -- -- 92
2020-01-25 11:00:00 9.3 7 Oeste 13 Oeste 0 -- -- 97
2020-01-25 10:00:00 7.1 6 Oeste 14 Oeste 0 -- -- 98
2020-01-25 09:00:00 6.1 6 Oeste 13 Oeste 0 -- -- 98
2020-01-25 08:00:00 6.1 6 Oeste 14 Sudoeste 0 -- -- 98
2020-01-25 07:00:00 6.3 8 Oeste 16 Oeste 0 -- -- 99
2020-01-25 06:00:00 6.7 6 Oeste 14 Oeste 0 -- -- 99
2020-01-25 05:00:00 6.6 7 Oeste 13 Oeste 0 -- -- 99
2020-01-25 04:00:00 6 7 Oeste 14 Oeste 0 -- -- 99
2020-01-25 03:00:00 5.9 8 Oeste 14 Sudoeste 0 -- -- 99
2020-01-25 02:00:00 6 9 Oeste 14 Oeste 0 -- -- 99
2020-01-25 01:00:00 6.1 7 Oeste 13 Oeste 0 -- -- 98
2020-01-25 00:00:00 6.3 8 Oeste 13 Sudoeste 0 -- -- 98
2020-01-24 23:00:00 6.5 7 Oeste 13 Sudoeste 0 -- -- 97
2020-01-24 22:00:00 7.2 7 Oeste 12 Sudoeste 0 -- -- 96
2020-01-24 21:00:00 7.7 6 Oeste 11 Oeste 0 -- -- 95
2020-01-24 20:00:00 8.5 5 Oeste 10 Oeste 0 -- -- 94
2020-01-24 19:00:00 10 3 Sur 7 Sudeste 0 -- -- 91
2020-01-24 18:00:00 11.3 3 Sudeste 9 Nordeste 0 -- -- 87
2020-01-24 17:00:00 13.1 5 Este 12 Sur 0 -- -- 79
2020-01-24 16:00:00 13.9 5 Sudeste 14 Este 0 -- -- 72
2020-01-24 15:00:00 13.9 6 Este 17 Sudeste 0 -- -- 76
2020-01-24 14:00:00 15.4 5 Sur 14 Sur 0 -- -- 66
2020-01-24 13:00:00 13.9 2 Norte 9 Noroeste 0 -- -- 72
2020-01-24 12:00:00 12.3 5 Oeste 15 Oeste 0 -- -- 76
2020-01-24 11:00:00 9.1 9 Oeste 18 Oeste 0 -- -- 92
2020-01-24 10:00:00 6.2 8 Oeste 15 Oeste 0 -- -- 100
2020-01-24 09:00:00 4 8 Oeste 13 Oeste 0 -- -- 99
2020-01-24 08:00:00 4.1 8 Oeste 14 Oeste 0 -- -- 99
2020-01-24 07:00:00 4.4 6 Oeste 14 Oeste 0 -- -- 99
2020-01-24 06:00:00 4.2 7 Oeste 14 Oeste 0 -- -- 99
2020-01-24 05:00:00 4.5 8 Oeste 14 Oeste 0 -- -- 98
2020-01-24 04:00:00 5.1 8 Oeste 14 Oeste 0 -- -- 98
2020-01-24 03:00:00 5.2 8 Oeste 14 Oeste 0 -- -- 98
2020-01-24 02:00:00 5.5 9 Oeste 14 Oeste 0 -- -- 97
2020-01-24 01:00:00 5.6 8 Oeste 14 Oeste 0 -- -- 97
2020-01-24 00:00:00 6.2 8 Oeste 14 Oeste 0 -- -- 97
2020-01-23 23:00:00 6.9 6 Oeste 10 Oeste 0 -- -- 96
2020-01-23 22:00:00 7.5 6 Oeste 10 Oeste 0 -- -- 95
2020-01-23 21:00:00 8.4 6 Oeste 11 Oeste 0 -- -- 96
2020-01-23 20:00:00 9.4 4 Oeste 9 Oeste 0 -- -- 94
2020-01-23 19:00:00 10.9 3 Oeste 6 Oeste 0 -- -- 92
2020-01-23 18:00:00 12.6 0 Calma 13 Sur 0 -- -- 88
2020-01-23 17:00:00 13.8 9 Sudoeste 15 Sudoeste 0 -- -- 83
2020-01-23 16:00:00 15 8 Sudoeste 18 Sudoeste 0 -- -- 79
2020-01-23 15:00:00 15.1 10 Sur 19 Sur 0 -- -- 78
2020-01-23 14:00:00 15.6 8 Sur 18 Sur 0 -- -- 75
2020-01-23 13:00:00 16 8 Sur 15 Sur 0 -- -- 74
2020-01-23 12:00:00 15.2 4 Sudoeste 9 Noroeste 0 -- -- 83
2020-01-23 11:00:00 13.5 2 Sudeste 21 Este 0.4 -- -- 95
2020-01-23 10:00:00 12.7 13 Este 42 Sudeste 1.6 -- -- 87
2020-01-23 09:00:00 13.9 16 Este 33 Sudeste 0.2 -- -- 98
2020-01-23 08:00:00 13.7 13 Este 25 Este 0 -- -- 99
2020-01-23 07:00:00 13.6 12 Este 36 Este 0.8 -- -- 98
2020-01-23 06:00:00 13.6 15 Este 38 Este 2.8 -- -- 98
2020-01-23 05:00:00 13.4 20 Este 40 Este 3 -- -- 98
2020-01-23 04:00:00 13.5 16 Este 40 Este 2.4 -- -- 97
2020-01-23 03:00:00 13.5 16 Este 32 Nordeste 2.6 -- -- 96
2020-01-23 02:00:00 13.6 17 Este 33 Nordeste 1.2 -- -- 97
2020-01-23 01:00:00 13.9 13 Este 27 Este 0.4 -- -- 95
2020-01-23 00:00:00 14 12 Este 27 Este 0 -- -- 94
2020-01-22 23:00:00 14.1 13 Este 24 Este 0 -- -- 93
2020-01-22 22:00:00 14.1 15 Este 33 Este 0 -- -- 93
2020-01-22 21:00:00 14 18 Este 31 Este 0 -- -- 93
2020-01-22 20:00:00 14.1 18 Este 36 Este 0 -- -- 93
2020-01-22 19:00:00 14 16 Este 38 Este 0 -- -- 93
2020-01-22 18:00:00 14.1 18 Este 34 Este 0 -- -- 92
2020-01-22 17:00:00 14.3 14 Este 37 Este 0 -- -- 91
2020-01-22 16:00:00 14.3 15 Este 32 Este 0.2 -- -- 92
2020-01-22 15:00:00 14.3 16 Este 42 Este 0 -- -- 91
2020-01-22 14:00:00 14.3 14 Este 32 Este 0 -- -- 92
2020-01-22 13:00:00 14.3 15 Este 37 Este 0 -- -- 91
2020-01-22 12:00:00 14.5 13 Este 33 Este 0 -- -- 91
2020-01-22 11:00:00 14.4 18 Este 37 Este 0 -- -- 92
2020-01-22 10:00:00 14.3 15 Este 37 Este 0 -- -- 92
2020-01-22 09:00:00 14.3 21 Este 42 Este 0 -- -- 91
2020-01-22 08:00:00 14.2 18 Este 45 Este 0.2 -- -- 91
2020-01-22 07:00:00 13.8 16 Este 47 Este 5.2 -- -- 94
2020-01-22 06:00:00 13.9 18 Este 44 Este 0 -- -- 93
2020-01-22 05:00:00 13.7 19 Este 39 Este 1.4 -- -- 93
2020-01-22 04:00:00 13.1 26 Este 56 Este 4.4 -- -- 90
2020-01-22 03:00:00 12.6 28 Este 59 Este 3 -- -- 93
2020-01-22 02:00:00 12.5 28 Este 60 Este 2.8 -- -- 95
2020-01-22 01:00:00 12.4 32 Este 61 Este 2.6 -- -- 93
2020-01-22 00:00:00 12.2 35 Este 64 Este 4.4 -- -- 92
2020-01-21 23:00:00 12.5 32 Este 67 Este 1.4 -- -- 88
2020-01-21 22:00:00 12.8 31 Nordeste 59 Este 0.2 -- -- 84
2020-01-21 21:00:00 12.6 32 Este 62 Nordeste 0 -- -- 82
2020-01-21 20:00:00 12.4 26 Nordeste 51 Nordeste 0 -- -- 81
2020-01-21 19:00:00 12.3 29 Nordeste 58 Este 0 -- -- 81
2020-01-21 18:00:00 12.2 29 Nordeste 57 Este 0 -- -- 81
2020-01-21 17:00:00 12.3 31 Nordeste 59 Este 0 -- -- 82
2020-01-21 16:00:00 12.3 30 Este 53 Nordeste 0 -- -- 82
2020-01-21 15:00:00 12.2 31 Este 58 Nordeste 0 -- -- 83
2020-01-21 14:00:00 12 28 Este 68 Este 0.2 -- -- 83
2020-01-21 13:00:00 11.7 35 Este 71 Este 0 -- -- 85
2020-01-21 12:00:00 11.5 32 Este 63 Este 0.4 -- -- 89
2020-01-21 11:00:00 11.4 32 Este 65 Nordeste 0.2 -- -- 89
2020-01-21 10:00:00 10.8 27 Nordeste 64 Este 0.8 -- -- 91
2020-01-21 09:00:00 10.9 32 Nordeste 71 Este 0.4 -- -- 89
2020-01-21 08:00:00 11.1 31 Nordeste 72 Nordeste 0 -- -- 87
2020-01-21 07:00:00 11 34 Nordeste 66 Este 1.2 -- -- 87
2020-01-21 06:00:00 11.3 31 Este 62 Nordeste 0.2 -- -- 86
2020-01-21 05:00:00 11.1 31 Este 64 Este 0.2 -- -- 87
2020-01-21 04:00:00 10.5 32 Este 67 Este 1.8 -- -- 92
2020-01-21 03:00:00 10.6 30 Este 65 Este 2.2 -- -- 91
2020-01-21 02:00:00 9.7 20 Nordeste 52 Nordeste 5.4 -- -- 94
2020-01-21 01:00:00 9.5 22 Nordeste 49 Nordeste 5.2 -- -- 94
2020-01-21 00:00:00 9.5 18 Nordeste 52 Nordeste 5.2 -- -- 94
2020-01-20 23:00:00 9.2 21 Nordeste 54 Nordeste 5.6 -- -- 94
2020-01-20 22:00:00 9 21 Nordeste 52 Nordeste 4.6 -- -- 93
2020-01-20 21:00:00 8.9 24 Nordeste 55 Nordeste 2.6 -- -- 92
2020-01-20 20:00:00 8.9 21 Nordeste 50 Nordeste 3.6 -- -- 92
2020-01-20 19:00:00 8.8 23 Nordeste 49 Nordeste 2.8 -- -- 90
2020-01-20 18:00:00 7.1 14 Norte 35 Norte 1.2 -- -- 94
2020-01-20 17:00:00 5.9 13 Norte 43 Norte 2.8 -- -- 93
2020-01-20 16:00:00 5.7 19 Norte 42 Norte 3 -- -- 92
2020-01-20 15:00:00 4.6 20 Norte 46 Noroeste 3.8 -- -- 93
2020-01-20 14:00:00 4.4 22 Norte 58 Norte 2.2 -- -- 91
2020-01-20 13:00:00 4.2 20 Norte 59 Nordeste 4.6 -- -- 91
2020-01-20 12:00:00 4.4 22 Norte 53 Noroeste 4.6 -- -- 90
2020-01-20 11:00:00 5.5 19 Norte 49 Norte 2.2 -- -- 88
2020-01-20 10:00:00 5.6 20 Norte 57 Nordeste 0.8 -- -- 78
2020-01-20 09:00:00 6.3 18 Norte 56 Norte 0 -- -- 65
2020-01-20 08:00:00 6.8 17 Norte 75 Norte 0 -- -- 53
2020-01-20 07:00:00 6.8 28 Norte 63 Nordeste 0 -- -- 48
2020-01-20 06:00:00 7.3 27 Norte 60 Noroeste 0 -- -- 45
2020-01-20 05:00:00 7.2 25 Norte 74 Noroeste 0 -- -- 44
2020-01-20 04:00:00 7.3 22 Norte 60 Norte 0 -- -- 43
2020-01-20 03:00:00 7.4 30 Norte 57 Noroeste 0 -- -- 42
2020-01-20 02:00:00 7.4 27 Norte 68 Nordeste 0 -- -- 42
2020-01-20 01:00:00 7.6 28 Norte 67 Norte 0 -- -- 42
2020-01-20 00:00:00 8 31 Norte 59 Norte 0 -- -- 41
2020-01-19 23:00:00 8.4 31 Norte 68 Noroeste 0 -- -- 40
2020-01-19 22:00:00 8.6 27 Norte 62 Nordeste 0 -- -- 40
2020-01-19 21:00:00 9 27 Norte 66 Norte 0 -- -- 39
2020-01-19 20:00:00 9.1 23 Norte 59 Noroeste 0 -- -- 40
2020-01-19 19:00:00 9.6 25 Norte 55 Norte 0 -- -- 39
2020-01-19 18:00:00 10.1 22 Norte 59 Nordeste 0 -- -- 37
2020-01-19 17:00:00 10.3 28 Nordeste 71 Nordeste 0 -- -- 38
2020-01-19 16:00:00 10.5 28 Nordeste 58 Nordeste 0 -- -- 38
2020-01-19 15:00:00 10.8 22 Nordeste 74 Norte 0 -- -- 40
2020-01-19 14:00:00 11 26 Norte 61 Norte 0 -- -- 38
2020-01-19 13:00:00 10.3 27 Norte 61 Nordeste 0 -- -- 44
2020-01-19 12:00:00 10.2 19 Nordeste 57 Norte 0 -- -- 47
2020-01-19 11:00:00 10 26 Nordeste 59 Nordeste 0 -- -- 46
2020-01-19 10:00:00 8.5 23 Nordeste 50 Norte 0 -- -- 59
2020-01-19 09:00:00 8 20 Norte 44 Norte 0 -- -- 66
2020-01-19 08:00:00 8 18 Nordeste 39 Nordeste 0 -- -- 72
2020-01-19 07:00:00 7.7 14 Norte 40 Norte 0 -- -- 81
2020-01-19 06:00:00 8.3 19 Norte 38 Nordeste 0 -- -- 78
2020-01-19 05:00:00 8.5 14 Norte 39 Norte 0 -- -- 84
2020-01-19 04:00:00 9.2 11 Norte 28 Norte 0 -- -- 84
2020-01-19 03:00:00 7.4 8 Oeste 24 Noroeste 0 -- -- 93
2020-01-19 02:00:00 7.2 13 Oeste 23 Oeste 0 -- -- 94
2020-01-19 01:00:00 6 7 Oeste 12 Oeste 0 -- -- 97
2020-01-19 00:00:00 5.2 7 Oeste 14 Oeste 0 -- -- 96
2020-01-18 23:00:00 5.3 7 Oeste 13 Oeste 0 -- -- 96
2020-01-18 22:00:00 5.3 6 Oeste 13 Oeste 0 -- -- 94
2020-01-18 21:00:00 6.1 5 Oeste 10 Oeste 0 -- -- 94
2020-01-18 20:00:00 6.7 4 Oeste 7 Oeste 0 -- -- 89
2020-01-18 19:00:00 8.2 3 Oeste 5 Oeste 0 -- -- 86
2020-01-18 18:00:00 9.7 2 Este 5 Sudeste 0 -- -- 84
2020-01-18 17:00:00 11.5 3 Sudeste 14 Sudeste 0 -- -- 77
2020-01-18 16:00:00 12.7 7 Sudeste 17 Sur 0 -- -- 68
2020-01-18 15:00:00 13.3 9 Sur 19 Sur 0 -- -- 63
2020-01-18 14:00:00 13.9 7 Sur 12 Sudoeste 0 -- -- 62
2020-01-18 13:00:00 12.1 0 Calma 12 Oeste 0 -- -- 67
2020-01-18 12:00:00 10.9 7 Oeste 12 Oeste 0 -- -- 71
2020-01-18 11:00:00 9.1 5 Oeste 17 Oeste 0 -- -- 78
2020-01-18 10:00:00 7.3 13 Oeste 20 Oeste 0 -- -- 81
2020-01-18 09:00:00 5.5 8 Oeste 16 Oeste 0 -- -- 89
2020-01-18 08:00:00 5 8 Oeste 21 Oeste 0 -- -- 89
2020-01-18 07:00:00 4.9 7 Oeste 14 Oeste 0 -- -- 89
2020-01-18 06:00:00 4.4 7 Oeste 14 Oeste 0 -- -- 92
2020-01-18 05:00:00 3.9 7 Oeste 15 Oeste 0 -- -- 92
2020-01-18 04:00:00 4 8 Oeste 14 Oeste 0 -- -- 91
2020-01-18 03:00:00 4.3 8 Oeste 15 Oeste 0 -- -- 90
2020-01-18 02:00:00 5.2 8 Oeste 15 Oeste 0 -- -- 87
2020-01-18 01:00:00 6.2 7 Oeste 15 Oeste 0 -- -- 86
2020-01-18 00:00:00 5.7 7 Oeste 13 Oeste 0 -- -- 88
2020-01-17 23:00:00 5.5 6 Oeste 13 Oeste 0 -- -- 86
2020-01-17 22:00:00 6.3 8 Oeste 14 Oeste 0 -- -- 83
2020-01-17 21:00:00 8.1 6 Oeste 10 Oeste 0 -- -- 77
2020-01-17 20:00:00 10.3 3 Este 12 Noroeste 0 -- -- 69
2020-01-17 19:00:00 11.7 8 Oeste 24 Oeste 0 -- -- 60
2020-01-17 18:00:00 12 4 Sur 37 Nordeste 0 -- -- 61
2020-01-17 17:00:00 12.5 18 Norte 44 Norte 0 -- -- 57
2020-01-17 16:00:00 15.2 17 Este 31 Este 0 -- -- 69
2020-01-17 15:00:00 18.3 5 Sudeste 12 Sur 0 -- -- 54
2020-01-17 14:00:00 18.1 10 Sur 20 Sudeste 0 -- -- 55
2020-01-17 13:00:00 18.2 5 Sudoeste 20 Oeste 0 -- -- 51
2020-01-17 12:00:00 16.4 8 Oeste 15 Oeste 0 -- -- 58
2020-01-17 11:00:00 15.6 5 Sudoeste 9 Sudoeste 0 -- -- 65
2020-01-17 10:00:00 13 5 Sudoeste 9 Sur 0 -- -- 74
2020-01-17 09:00:00 10.5 4 Sudoeste 14 Noroeste 0 -- -- 84
2020-01-17 08:00:00 11.3 6 Oeste 16 Noroeste 0 -- -- 83
2020-01-17 07:00:00 11.5 6 Oeste 13 Noroeste 0 -- -- 80
2020-01-17 06:00:00 11.3 4 Norte 9 Norte 0 -- -- 83
2020-01-17 05:00:00 11.3 2 Nordeste 19 Oeste 0 -- -- 85
2020-01-17 04:00:00 12.2 9 Oeste 28 Oeste 0 -- -- 85
2020-01-17 03:00:00 12.6 6 Oeste 22 Oeste 0 -- -- 86
2020-01-17 02:00:00 12.8 12 Sudoeste 33 Sur 0 -- -- 87
2020-01-17 01:00:00 12.9 8 Sudoeste 26 Sudoeste 0 -- -- 88
2020-01-17 00:00:00 12.8 6 Sudoeste 22 Sudoeste 0 -- -- 89
2020-01-16 23:00:00 12.6 4 Norte 18 Sudoeste 0 -- -- 87
2020-01-16 22:00:00 12.8 9 Sudoeste 29 Sur 0 -- -- 86
2020-01-16 21:00:00 12.9 13 Sudoeste 27 Sur 0 -- -- 88
2020-01-16 20:00:00 12.7 8 Sudoeste 24 Sudoeste 0 -- -- 89
2020-01-16 19:00:00 12.5 6 Oeste 21 Sudoeste 0 -- -- 89
2020-01-16 18:00:00 12.5 4 Noroeste 15 Norte 0 -- -- 85
2020-01-16 17:00:00 13.1 7 Oeste 21 Sur 0 -- -- 82
2020-01-16 16:00:00 14 7 Sudoeste 20 Sudoeste 0 -- -- 75
2020-01-16 15:00:00 14.1 6 Sudoeste 20 Sudeste 0 -- -- 76
2020-01-16 14:00:00 14 10 Sur 22 Sudoeste 0 -- -- 73
2020-01-16 13:00:00 13.8 9 Sur 21 Sudoeste 0 -- -- 77
2020-01-16 12:00:00 11.9 0 Calma 15 Oeste 0 -- -- 75
2020-01-16 11:00:00 8.8 6 Oeste 16 Oeste 0 -- -- 81
2020-01-16 10:00:00 5.6 8 Oeste 18 Oeste 0 -- -- 91
2020-01-16 09:00:00 4.3 9 Oeste 16 Oeste 0 -- -- 95
2020-01-16 08:00:00 3.5 9 Oeste 15 Oeste 0 -- -- 95
2020-01-16 07:00:00 3.3 9 Oeste 17 Oeste 0 -- -- 94
2020-01-16 06:00:00 3.5 10 Oeste 15 Oeste 0 -- -- 93
2020-01-16 05:00:00 4.1 9 Oeste 17 Sudoeste 0 -- -- 93
2020-01-16 04:00:00 4.1 9 Oeste 16 Oeste 0 -- -- 93
2020-01-16 03:00:00 3.9 8 Oeste 17 Oeste 0 -- -- 93
2020-01-16 02:00:00 4.5 9 Oeste 15 Oeste 0 -- -- 93
2020-01-16 01:00:00 5 9 Oeste 17 Sudoeste 0 -- -- 93
2020-01-16 00:00:00 5.3 8 Oeste 16 Sudoeste 0 -- -- 93
2020-01-15 23:00:00 5.7 5 Oeste 12 Sudoeste 0 -- -- 93
2020-01-15 22:00:00 6.1 7 Oeste 11 Noroeste 0 -- -- 92
2020-01-15 21:00:00 6.7 6 Oeste 10 Oeste 0 -- -- 89
2020-01-15 20:00:00 7.8 5 Oeste 9 Oeste 0 -- -- 86
2020-01-15 19:00:00 9.8 3 Oeste 10 Sur 0 -- -- 81
2020-01-15 18:00:00 11.3 3 Oeste 10 Sur 0 -- -- 73
2020-01-15 17:00:00 12.9 6 Sudoeste 24 Sur 0 -- -- 70
2020-01-15 16:00:00 13.7 4 Sur 26 Sudoeste 0 -- -- 68
2020-01-15 15:00:00 13.9 13 Sudoeste 32 Sudoeste 0 -- -- 71
2020-01-15 14:00:00 14 18 Sudoeste 36 Sur 0 -- -- 74
2020-01-15 13:00:00 14.6 8 Sur 23 Sudoeste 0 -- -- 70
2020-01-15 12:00:00 14.5 11 Sur 23 Sur 0 -- -- 69
2020-01-15 11:00:00 13.2 6 Sur 20 Sudoeste 0 -- -- 75
2020-01-15 10:00:00 11.7 6 Sudoeste 15 Sudoeste 0 -- -- 80
2020-01-15 09:00:00 8.6 3 Noroeste 10 Noroeste 0 -- -- 90
2020-01-15 08:00:00 8.3 3 Noroeste 11 Noroeste 0 -- -- 87
2020-01-15 07:00:00 9 4 Oeste 11 Sudoeste 0 -- -- 86
2020-01-15 06:00:00 9.5 3 Norte 13 Sur 0 -- -- 82
2020-01-15 05:00:00 10.6 6 Sudoeste 20 Oeste 0 -- -- 79
2020-01-15 04:00:00 10.8 6 Sudoeste 19 Oeste 0 -- -- 81
2020-01-15 03:00:00 11.2 6 Oeste 21 Sudoeste 0 -- -- 80
2020-01-15 02:00:00 11.1 5 Oeste 18 Oeste 0 -- -- 81
2020-01-15 01:00:00 11.4 6 Oeste 19 Sudoeste 0 -- -- 79
2020-01-15 00:00:00 12.1 8 Oeste 29 Sudoeste 0 -- -- 77
2020-01-14 23:00:00 12.4 8 Sudoeste 25 Sur 0 -- -- 76
2020-01-14 22:00:00 12.2 10 Sudoeste 31 Sudoeste 0 -- -- 76
2020-01-14 21:00:00 12 9 Sudoeste 27 Sur 0 -- -- 75
2020-01-14 20:00:00 12.1 10 Sudoeste 32 Sudoeste 0 -- -- 76
2020-01-14 19:00:00 12.4 14 Sudoeste 36 Sudoeste 0 -- -- 72
2020-01-14 18:00:00 12.2 10 Sudoeste 38 Sudoeste 0 -- -- 69
2020-01-14 17:00:00 12.9 19 Sur 34 Sur 0 -- -- 63
2020-01-14 16:00:00 13.6 24 Sur 40 Sur 0 -- -- 55
2020-01-14 15:00:00 14.2 17 Sur 39 Sur 0 -- -- 56
2020-01-14 14:00:00 14.4 16 Sudoeste 35 Sudoeste 0 -- -- 47
2020-01-14 13:00:00 14.6 12 Sudoeste 32 Sudoeste 0 -- -- 48
2020-01-14 12:00:00 13.6 8 Sudoeste 22 Sudoeste 0 -- -- 52
2020-01-14 11:00:00 7.8 4 Oeste 13 Sudoeste 0 -- -- 83
2020-01-14 10:00:00 3.7 8 Oeste 13 Oeste 0 -- -- 93
2020-01-14 09:00:00 0.9 9 Oeste 18 Oeste 0 -- -- 96
2020-01-14 08:00:00 0.8 8 Oeste 15 Oeste 0 -- -- 95
2020-01-14 07:00:00 1.2 9 Oeste 18 Sudoeste 0 -- -- 94
2020-01-14 06:00:00 1.9 9 Oeste 19 Oeste 0 -- -- 93
2020-01-14 05:00:00 2.6 8 Oeste 15 Oeste 0 -- -- 92
2020-01-14 04:00:00 3.1 8 Oeste 15 Oeste 0 -- -- 93
2020-01-14 03:00:00 3.2 7 Oeste 14 Oeste 0 -- -- 94
2020-01-14 02:00:00 4 5 Oeste 13 Oeste 0 -- -- 93
2020-01-14 01:00:00 4.5 5 Oeste 13 Noroeste 0 -- -- 94
2020-01-14 00:00:00 4.1 5 Oeste 10 Oeste 0 -- -- 93
2020-01-13 23:00:00 3.9 5 Oeste 12 Oeste 0 -- -- 93
2020-01-13 22:00:00 4.1 4 Oeste 9 Oeste 0 -- -- 92
2020-01-13 21:00:00 4.5 6 Oeste 11 Sudoeste 0 -- -- 90
2020-01-13 20:00:00 5.3 4 Oeste 10 Oeste 0 -- -- 87
2020-01-13 19:00:00 6.6 4 Sudoeste 8 Oeste 0 -- -- 84
2020-01-13 18:00:00 8.6 2 Sudoeste 6 Oeste 0 -- -- 76
2020-01-13 17:00:00 10.9 5 Oeste 15 Sudoeste 0 -- -- 64
2020-01-13 16:00:00 12.1 8 Sudoeste 16 Sur 0 -- -- 61
2020-01-13 15:00:00 12.4 7 Sur 17 Sudeste 0 -- -- 61
2020-01-13 14:00:00 12.9 7 Sur 16 Sudoeste 0 -- -- 68
2020-01-13 13:00:00 12.7 4 Este 10 Oeste 0 -- -- 69
2020-01-13 12:00:00 10.2 6 Oeste 16 Oeste 0 -- -- 67
2020-01-13 11:00:00 6.7 8 Oeste 18 Oeste 0 -- -- 76
2020-01-13 10:00:00 3.1 9 Oeste 16 Oeste 0 -- -- 85
2020-01-13 09:00:00 0.5 10 Oeste 16 Oeste 0 -- -- 93
2020-01-13 08:00:00 0 9 Oeste 19 Oeste 0 -- -- 94
2020-01-13 07:00:00 0 9 Oeste 19 Oeste 0 -- -- 93
2020-01-13 06:00:00 0.3 9 Oeste 17 Oeste 0 -- -- 91
2020-01-13 05:00:00 0.3 7 Oeste 18 Oeste 0 -- -- 93
2020-01-13 04:00:00 0.8 10 Oeste 15 Oeste 0 -- -- 94
2020-01-13 03:00:00 0.9 8 Oeste 14 Oeste 0 -- -- 93
2020-01-13 02:00:00 1.5 6 Oeste 15 Oeste 0 -- -- 92
2020-01-13 01:00:00 2.5 9 Oeste 16 Sudoeste 0 -- -- 93
2020-01-13 00:00:00 2.7 10 Oeste 16 Oeste 0 -- -- 95
2020-01-12 23:00:00 3 9 Oeste 16 Oeste 0 -- -- 95
2020-01-12 22:00:00 2.9 8 Oeste 14 Oeste 0 -- -- 92
2020-01-12 21:00:00 3.6 8 Oeste 15 Oeste 0 -- -- 91
2020-01-12 20:00:00 4.5 7 Oeste 13 Oeste 0 -- -- 93
2020-01-12 19:00:00 5.2 6 Oeste 12 Oeste 0 -- -- 89
2020-01-12 18:00:00 7.4 2 Oeste 7 Sur 0 -- -- 84
2020-01-12 17:00:00 10.4 0 Calma 10 Sudeste 0 -- -- 72
2020-01-12 16:00:00 12.5 4 Sudeste 13 Sudeste 0 -- -- 64
2020-01-12 15:00:00 12.9 5 Sur 12 Sudeste 0 -- -- 60
2020-01-12 14:00:00 13.2 4 Sudoeste 15 Oeste 0 -- -- 58
2020-01-12 13:00:00 11.7 9 Oeste 18 Oeste 0 -- -- 60
2020-01-12 12:00:00 9.5 10 Oeste 16 Oeste 0 -- -- 69
2020-01-12 11:00:00 7.1 9 Oeste 18 Oeste 0 -- -- 79
2020-01-12 10:00:00 3.1 9 Oeste 17 Oeste 0 -- -- 90
2020-01-12 09:00:00 0.3 9 Oeste 17 Sudoeste 0 -- -- 97
2020-01-12 08:00:00 0.1 9 Oeste 16 Oeste 0 -- -- 96
2020-01-12 07:00:00 0.3 8 Oeste 16 Oeste 0 -- -- 96
2020-01-12 06:00:00 0.5 8 Oeste 15 Oeste 0 -- -- 96
2020-01-12 05:00:00 0.7 8 Oeste 16 Oeste 0 -- -- 96
2020-01-12 04:00:00 1 9 Oeste 15 Oeste 0 -- -- 96
2020-01-12 03:00:00 1 8 Oeste 15 Oeste 0 -- -- 95
2020-01-12 02:00:00 1.5 8 Oeste 14 Oeste 0 -- -- 95
2020-01-12 01:00:00 1.5 7 Oeste 17 Oeste 0 -- -- 94
2020-01-12 00:00:00 2 9 Sudoeste 16 Sudoeste 0 -- -- 93
2020-01-11 23:00:00 2.4 7 Oeste 14 Oeste 0 -- -- 92
2020-01-11 22:00:00 2.9 8 Oeste 16 Oeste 0 -- -- 90
2020-01-11 21:00:00 3.7 9 Oeste 17 Oeste 0 -- -- 86
2020-01-11 20:00:00 4.6 8 Oeste 14 Oeste 0 -- -- 85
2020-01-11 19:00:00 5.7 6 Oeste 12 Oeste 0 -- -- 83
2020-01-11 18:00:00 7.7 5 Oeste 8 Oeste 0 -- -- 74
2020-01-11 17:00:00 10.8 2 Este 11 Nordeste 0 -- -- 61
2020-01-11 16:00:00 12.7 8 Noroeste 20 Noroeste 0 -- -- 49
2020-01-11 15:00:00 13.1 9 Norte 23 Nordeste 0 -- -- 48
2020-01-11 14:00:00 13 12 Norte 24 Noroeste 0 -- -- 44
2020-01-11 13:00:00 12.7 9 Norte 23 Nordeste 0 -- -- 49
2020-01-11 12:00:00 12 8 Norte 24 Nordeste 0 -- -- 50
2020-01-11 11:00:00 10.7 10 Norte 24 Noroeste 0 -- -- 55
2020-01-11 10:00:00 8.8 10 Norte 23 Norte 0 -- -- 65
2020-01-11 09:00:00 3.4 6 Oeste 14 Sudoeste 0 -- -- 91
2020-01-11 08:00:00 3.3 6 Oeste 12 Oeste 0 -- -- 89
2020-01-11 07:00:00 4.7 6 Oeste 14 Noroeste 0 -- -- 83
2020-01-11 06:00:00 7.5 8 Norte 18 Noroeste 0 -- -- 71
2020-01-11 05:00:00 4.9 9 Oeste 16 Oeste 0 -- -- 87
2020-01-11 04:00:00 6.4 8 Oeste 20 Noroeste 0 -- -- 80
2020-01-11 03:00:00 7.4 4 Oeste 15 Norte 0 -- -- 76
2020-01-11 02:00:00 9.8 8 Norte 30 Norte 0 -- -- 64
2020-01-11 01:00:00 9.8 13 Norte 30 Noroeste 0 -- -- 66
2020-01-11 00:00:00 9.8 15 Noroeste 36 Noroeste 0 -- -- 68
2020-01-10 23:00:00 10 16 Noroeste 35 Norte 0 -- -- 68
2020-01-10 22:00:00 10.4 13 Noroeste 32 Noroeste 0 -- -- 67
2020-01-10 21:00:00 10.6 13 Norte 35 Norte 0 -- -- 67
2020-01-10 20:00:00 10.6 14 Norte 31 Norte 0 -- -- 69
2020-01-10 19:00:00 11.1 14 Norte 44 Noroeste 0 -- -- 66
2020-01-10 18:00:00 11.4 10 Noroeste 24 Norte 0 -- -- 68
2020-01-10 17:00:00 12 2 Sur 9 Oeste 0 -- -- 76
2020-01-10 16:00:00 12.6 6 Oeste 14 Oeste 0 -- -- 81
2020-01-10 15:00:00 13.2 7 Oeste 15 Oeste 0 -- -- 75
2020-01-10 14:00:00 11.9 10 Noroeste 16 Oeste 0 -- -- 82
2020-01-10 13:00:00 11.8 7 Noroeste 18 Noroeste 0 -- -- 77
2020-01-10 12:00:00 10.6 9 Noroeste 19 Norte 0 -- -- 87
2020-01-10 11:00:00 9.7 6 Oeste 16 Noroeste 0.2 -- -- 96
2020-01-10 10:00:00 9.2 8 Noroeste 14 Oeste 0.6 -- -- 95
2020-01-10 09:00:00 9.4 4 Noroeste 14 Norte 0.6 -- -- 93
2020-01-10 08:00:00 9.7 8 Norte 23 Nordeste 1.8 -- -- 87
2020-01-10 07:00:00 9.8 9 Norte 25 Norte 1.2 -- -- 89
2020-01-10 06:00:00 9.7 3 Noroeste 10 Sudoeste 1.8 -- -- 93
2020-01-10 05:00:00 9.8 3 Sudoeste 5 Sur 0 -- -- 88
2020-01-10 04:00:00 10.4 3 Este 8 Este 0 -- -- 83
2020-01-10 03:00:00 10.4 3 Sudoeste 6 Oeste 0 -- -- 84
2020-01-10 02:00:00 11.1 5 Oeste 12 Oeste 0 -- -- 82
2020-01-10 01:00:00 11.9 8 Oeste 22 Noroeste 0 -- -- 80
2020-01-10 00:00:00 11.9 7 Oeste 21 Oeste 0 -- -- 80
2020-01-09 23:00:00 11.7 7 Oeste 25 Sudoeste 0 -- -- 80
2020-01-09 22:00:00 11.4 5 Oeste 18 Oeste 0 -- -- 80
2020-01-09 21:00:00 11.8 6 Sur 21 Sur 0 -- -- 81
2020-01-09 20:00:00 12.2 5 Sur 27 Sur 0 -- -- 79
2020-01-09 19:00:00 12.4 9 Sudoeste 24 Sudoeste 0 -- -- 82
2020-01-09 18:00:00 12.2 5 Noroeste 24 Sudoeste 0 -- -- 82
2020-01-09 17:00:00 12.8 7 Sudoeste 25 Sur 0 -- -- 80
2020-01-09 16:00:00 13.7 10 Sudoeste 28 Sudoeste 0 -- -- 77
2020-01-09 15:00:00 14.3 9 Sudoeste 36 Sur 0 -- -- 77
2020-01-09 14:00:00 14.5 7 Sur 28 Sudoeste 0 -- -- 74
2020-01-09 13:00:00 14.7 11 Sudoeste 29 Sur 0 -- -- 75
2020-01-09 12:00:00 14.1 14 Sur 25 Sur 0 -- -- 77
2020-01-09 11:00:00 11.1 9 Sudoeste 18 Sudoeste 0 -- -- 94
2020-01-09 10:00:00 5.2 5 Oeste 12 Noroeste 0 -- -- 100
2020-01-09 09:00:00 2.9 8 Oeste 15 Oeste 0 -- -- 99
2020-01-09 08:00:00 1.9 8 Oeste 17 Oeste 0 -- -- 98
2020-01-09 07:00:00 2.2 10 Oeste 15 Oeste 0 -- -- 97
2020-01-09 06:00:00 2.4 8 Oeste 13 Oeste 0 -- -- 97
2020-01-09 05:00:00 2.6 7 Oeste 15 Oeste 0 -- -- 96
2020-01-09 04:00:00 2.3 8 Oeste 15 Sudoeste 0 -- -- 95
2020-01-09 03:00:00 2.5 9 Oeste 17 Oeste 0 -- -- 94
2020-01-09 02:00:00 2.8 9 Oeste 16 Oeste 0 -- -- 94
2020-01-09 01:00:00 3.2 9 Oeste 18 Oeste 0 -- -- 93
2020-01-09 00:00:00 3.5 9 Oeste 16 Oeste 0 -- -- 92
2020-01-08 23:00:00 4.3 8 Oeste 14 Oeste 0 -- -- 92
2020-01-08 22:00:00 4.6 8 Oeste 16 Oeste 0 -- -- 92
2020-01-08 21:00:00 5.5 8 Oeste 14 Oeste 0 -- -- 91
2020-01-08 20:00:00 7.2 7 Oeste 13 Oeste 0 -- -- 90
2020-01-08 19:00:00 8.3 5 Oeste 9 Oeste 0 -- -- 88
2020-01-08 18:00:00 10.4 3 Oeste 5 Oeste 0 -- -- 80
2020-01-08 17:00:00 13.8 4 Este 14 Este 0 -- -- 69
2020-01-08 16:00:00 14.8 8 Nordeste 16 Este 0 -- -- 63
2020-01-08 15:00:00 15.2 9 Nordeste 20 Nordeste 0 -- -- 62
2020-01-08 14:00:00 15.1 9 Nordeste 24 Norte 0 -- -- 65
2020-01-08 13:00:00 15.3 14 Nordeste 28 Nordeste 0 -- -- 65
2020-01-08 12:00:00 14.7 16 Nordeste 30 Nordeste 0 -- -- 66
2020-01-08 11:00:00 14.3 12 Nordeste 29 Norte 0 -- -- 66
2020-01-08 10:00:00 11.6 13 Norte 26 Norte 0 -- -- 78
2020-01-08 09:00:00 5.2 10 Oeste 21 Oeste 0 -- -- 90
2020-01-08 08:00:00 4.8 6 Oeste 20 Oeste 0 -- -- 89
2020-01-08 07:00:00 5 8 Oeste 17 Oeste 0 -- -- 88
2020-01-08 06:00:00 5.8 9 Oeste 17 Oeste 0 -- -- 87
2020-01-08 05:00:00 5.5 8 Oeste 14 Oeste 0 -- -- 89
2020-01-08 04:00:00 4.9 5 Sudoeste 17 Oeste 0 -- -- 90
2020-01-08 03:00:00 5.8 6 Oeste 17 Sudoeste 0 -- -- 90
2020-01-08 02:00:00 4.4 9 Oeste 18 Oeste 0 -- -- 91
2020-01-08 01:00:00 5.1 7 Oeste 16 Sudoeste 0 -- -- 90
2020-01-08 00:00:00 6.2 9 Oeste 15 Oeste 0 -- -- 87
2020-01-07 23:00:00 6.8 8 Oeste 15 Oeste 0 -- -- 87
2020-01-07 22:00:00 7.2 6 Oeste 13 Oeste 0 -- -- 88
2020-01-07 21:00:00 8 9 Oeste 17 Oeste 0 -- -- 87
2020-01-07 20:00:00 9.2 6 Oeste 11 Oeste 0 -- -- 84
2020-01-07 19:00:00 10.3 4 Sudoeste 11 Sudoeste 0 -- -- 85
2020-01-07 18:00:00 10.7 3 Oeste 8 Oeste 0 -- -- 87
2020-01-07 17:00:00 12.4 3 Sur 4 Sur 0 -- -- 82
2020-01-07 16:00:00 14.2 3 Sudeste 10 Sudeste 0 -- -- 72
2020-01-07 15:00:00 14.3 4 Sudeste 10 Este 0 -- -- 73
2020-01-07 14:00:00 14.4 4 Este 9 Noroeste 0 -- -- 71
2020-01-07 13:00:00 13.5 4 Oeste 16 Sudoeste 0 -- -- 64
2020-01-07 12:00:00 10.8 9 Oeste 19 Oeste 0 -- -- 77
2020-01-07 11:00:00 8.5 9 Oeste 20 Oeste 0 -- -- 88
2020-01-07 10:00:00 6.3 10 Oeste 21 Oeste 0 -- -- 97
2020-01-07 09:00:00 3.5 8 Sudoeste 17 Oeste 0 -- -- 99
2020-01-07 08:00:00 3.5 8 Oeste 15 Oeste 0 -- -- 98
2020-01-07 07:00:00 3.2 9 Oeste 17 Oeste 0 -- -- 98
2020-01-07 06:00:00 2.8 8 Oeste 19 Oeste 0 -- -- 98
2020-01-07 05:00:00 3.1 9 Oeste 17 Oeste 0 -- -- 98
2020-01-07 04:00:00 3.7 8 Oeste 20 Sudoeste 0 -- -- 97
2020-01-07 03:00:00 3.9 8 Sudoeste 18 Sudoeste 0 -- -- 98
2020-01-07 02:00:00 4.7 8 Oeste 15 Oeste 0 -- -- 98
2020-01-07 01:00:00 4.6 7 Oeste 13 Sudoeste 0 -- -- 97
2020-01-07 00:00:00 5 8 Oeste 14 Oeste 0 -- -- 97
2020-01-06 23:00:00 5.4 7 Oeste 14 Oeste 0 -- -- 97
2020-01-06 22:00:00 5.6 7 Oeste 14 Oeste 0 -- -- 96
2020-01-06 21:00:00 6.1 7 Oeste 13 Oeste 0 -- -- 94
2020-01-06 20:00:00 7 6 Oeste 11 Sudoeste 0 -- -- 94
2020-01-06 19:00:00 7.8 5 Oeste 9 Oeste 0 -- -- 92
2020-01-06 18:00:00 9.6 3 Oeste 5 Oeste 0 -- -- 85
2020-01-06 17:00:00 12 0 Calma 9 Nordeste 0 -- -- 79
2020-01-06 16:00:00 13.9 5 Este 11 Este 0 -- -- 72
2020-01-06 15:00:00 14.1 6 Este 12 Este 0 -- -- 71
2020-01-06 14:00:00 14.4 4 Este 13 Este 0 -- -- 65
2020-01-06 13:00:00 12.8 4 Sudoeste 12 Sudoeste 0 -- -- 70
2020-01-06 12:00:00 8.7 7 Oeste 15 Oeste 0 -- -- 77
2020-01-06 11:00:00 6.8 7 Oeste 15 Oeste 0 -- -- 79
2020-01-06 10:00:00 5.1 9 Oeste 20 Oeste 0 -- -- 81